sensor_id;sensor_type;location;lat;lon;timestamp;pressure;altitude;pressure_sealevel;temperature;humidity
74790;BME280;63318;52.406;13.416;2022-10-30T00:00:44;101524.79;;;14.43;81.04
74790;BME280;63318;52.406;13.416;2022-10-30T00:03:15;101526.74;;;14.46;80.89
74790;BME280;63318;52.406;13.416;2022-10-30T00:05:45;101528.54;;;14.47;80.89
74790;BME280;63318;52.406;13.416;2022-10-30T00:08:16;101528.04;;;14.43;80.99
74790;BME280;63318;52.406;13.416;2022-10-30T00:10:44;101527.20;;;14.40;81.02
74790;BME280;63318;52.406;13.416;2022-10-30T00:13:13;101527.21;;;14.37;81.16
74790;BME280;63318;52.406;13.416;2022-10-30T00:15:47;101521.49;;;14.34;81.36
74790;BME280;63318;52.406;13.416;2022-10-30T00:18:15;101521.55;;;14.33;81.40
74790;BME280;63318;52.406;13.416;2022-10-30T00:20:44;101515.89;;;14.31;81.40
74790;BME280;63318;52.406;13.416;2022-10-30T00:23:12;101511.13;;;14.28;81.56
74790;BME280;63318;52.406;13.416;2022-10-30T00:25:40;101506.71;;;14.26;81.66
74790;BME280;63318;52.406;13.416;2022-10-30T00:28:09;101503.91;;;14.25;81.59
74790;BME280;63318;52.406;13.416;2022-10-30T00:30:37;101500.27;;;14.23;81.44
74790;BME280;63318;52.406;13.416;2022-10-30T00:33:07;101500.56;;;14.19;81.38
74790;BME280;63318;52.406;13.416;2022-10-30T00:35:35;101500.11;;;14.15;81.41
74790;BME280;63318;52.406;13.416;2022-10-30T00:38:03;101501.96;;;14.10;81.41
74790;BME280;63318;52.406;13.416;2022-10-30T00:40:31;101503.30;;;14.09;81.39
74790;BME280;63318;52.406;13.416;2022-10-30T00:42:59;101501.67;;;14.11;81.21
74790;BME280;63318;52.406;13.416;2022-10-30T00:45:28;101500.34;;;14.11;81.25
74790;BME280;63318;52.406;13.416;2022-10-30T00:47:58;101503.80;;;14.09;81.25
74790;BME280;63318;52.406;13.416;2022-10-30T00:50:30;101507.27;;;14.07;81.35
74790;BME280;63318;52.406;13.416;2022-10-30T00:53:01;101505.20;;;14.06;81.45
74790;BME280;63318;52.406;13.416;2022-10-30T00:55:33;101495.53;;;14.04;81.34
74790;BME280;63318;52.406;13.416;2022-10-30T00:58:05;101493.86;;;14.03;81.70
74790;BME280;63318;52.406;13.416;2022-10-30T01:00:37;101488.10;;;14.03;81.77
74790;BME280;63318;52.406;13.416;2022-10-30T01:03:06;101480.78;;;14.03;81.68
74790;BME280;63318;52.406;13.416;2022-10-30T01:05:36;101478.66;;;14.02;81.86
74790;BME280;63318;52.406;13.416;2022-10-30T01:08:05;101484.58;;;13.97;81.89
74790;BME280;63318;52.406;13.416;2022-10-30T01:10:33;101480.77;;;13.93;81.93
74790;BME280;63318;52.406;13.416;2022-10-30T01:13:02;101479.48;;;13.91;81.95
74790;BME280;63318;52.406;13.416;2022-10-30T01:15:33;101479.15;;;13.89;81.79
74790;BME280;63318;52.406;13.416;2022-10-30T01:18:16;101478.59;;;13.88;81.82
74790;BME280;63318;52.406;13.416;2022-10-30T01:21:06;101479.55;;;13.85;81.76
74790;BME280;63318;52.406;13.416;2022-10-30T01:23:46;101486.41;;;13.80;81.78
74790;BME280;63318;52.406;13.416;2022-10-30T01:26:22;101482.27;;;13.76;81.59
74790;BME280;63318;52.406;13.416;2022-10-30T01:29:05;101478.91;;;13.76;81.45
74790;BME280;63318;52.406;13.416;2022-10-30T01:31:44;101474.44;;;13.70;81.50
74790;BME280;63318;52.406;13.416;2022-10-30T01:34:23;101473.88;;;13.66;81.80
74790;BME280;63318;52.406;13.416;2022-10-30T01:37:00;101474.70;;;13.64;81.89
74790;BME280;63318;52.406;13.416;2022-10-30T01:39:33;101473.15;;;13.63;82.01
74790;BME280;63318;52.406;13.416;2022-10-30T01:42:09;101473.76;;;13.62;82.08
74790;BME280;63318;52.406;13.416;2022-10-30T01:44:38;101474.70;;;13.63;82.07
74790;BME280;63318;52.406;13.416;2022-10-30T01:47:19;101477.50;;;13.68;82.31
74790;BME280;63318;52.406;13.416;2022-10-30T01:50:05;101474.11;;;13.75;82.33
74790;BME280;63318;52.406;13.416;2022-10-30T01:52:42;101474.28;;;13.77;82.12
74790;BME280;63318;52.406;13.416;2022-10-30T01:55:21;101470.20;;;13.77;82.11
74790;BME280;63318;52.406;13.416;2022-10-30T01:57:59;101461.82;;;13.76;82.21
74790;BME280;63318;52.406;13.416;2022-10-30T02:00:29;101451.95;;;13.77;82.22
74790;BME280;63318;52.406;13.416;2022-10-30T02:02:59;101444.34;;;13.75;82.07
74790;BME280;63318;52.406;13.416;2022-10-30T02:05:34;101447.06;;;13.71;81.90
74790;BME280;63318;52.406;13.416;2022-10-30T02:08:05;101446.90;;;13.65;81.97
74790;BME280;63318;52.406;13.416;2022-10-30T02:10:34;101445.71;;;13.58;81.90
74790;BME280;63318;52.406;13.416;2022-10-30T02:13:04;101446.60;;;13.54;81.87
74790;BME280;63318;52.406;13.416;2022-10-30T02:15:32;101448.27;;;13.54;81.66
74790;BME280;63318;52.406;13.416;2022-10-30T02:18:01;101445.70;;;13.48;81.69
74790;BME280;63318;52.406;13.416;2022-10-30T02:20:29;101441.06;;;13.42;81.93
74790;BME280;63318;52.406;13.416;2022-10-30T02:22:58;101442.72;;;13.41;82.23
74790;BME280;63318;52.406;13.416;2022-10-30T02:25:26;101440.95;;;13.44;82.33
74790;BME280;63318;52.406;13.416;2022-10-30T02:27:54;101441.56;;;13.45;82.44
74790;BME280;63318;52.406;13.416;2022-10-30T02:30:22;101438.89;;;13.45;82.35
74790;BME280;63318;52.406;13.416;2022-10-30T02:32:51;101438.31;;;13.42;82.46
74790;BME280;63318;52.406;13.416;2022-10-30T02:35:19;101436.64;;;13.39;82.44
74790;BME280;63318;52.406;13.416;2022-10-30T02:37:49;101435.19;;;13.37;82.62
74790;BME280;63318;52.406;13.416;2022-10-30T02:40:17;101435.85;;;13.35;82.73
74790;BME280;63318;52.406;13.416;2022-10-30T02:42:46;101436.75;;;13.35;82.72
74790;BME280;63318;52.406;13.416;2022-10-30T02:45:18;101438.30;;;13.36;82.57
74790;BME280;63318;52.406;13.416;2022-10-30T02:47:46;101436.84;;;13.32;82.47
74790;BME280;63318;52.406;13.416;2022-10-30T02:50:14;101437.84;;;13.28;82.33
74790;BME280;63318;52.406;13.416;2022-10-30T02:52:43;101435.10;;;13.26;82.30
74790;BME280;63318;52.406;13.416;2022-10-30T02:55:11;101435.59;;;13.20;82.24
74790;BME280;63318;52.406;13.416;2022-10-30T02:57:39;101441.28;;;13.17;82.38
74790;BME280;63318;52.406;13.416;2022-10-30T03:00:09;101437.59;;;13.20;82.14
74790;BME280;63318;52.406;13.416;2022-10-30T03:02:38;101435.36;;;13.18;82.19
74790;BME280;63318;52.406;13.416;2022-10-30T03:05:07;101429.83;;;13.17;82.26
74790;BME280;63318;52.406;13.416;2022-10-30T03:07:35;101429.42;;;13.13;82.32
74790;BME280;63318;52.406;13.416;2022-10-30T03:10:04;101432.66;;;13.10;82.33
74790;BME280;63318;52.406;13.416;2022-10-30T03:12:32;101437.11;;;13.07;82.34
74790;BME280;63318;52.406;13.416;2022-10-30T03:15:01;101441.72;;;13.05;82.37
74790;BME280;63318;52.406;13.416;2022-10-30T03:17:29;101443.97;;;13.03;82.43
74790;BME280;63318;52.406;13.416;2022-10-30T03:19:57;101447.05;;;13.02;82.56
74790;BME280;63318;52.406;13.416;2022-10-30T03:22:26;101451.27;;;12.99;82.62
74790;BME280;63318;52.406;13.416;2022-10-30T03:24:54;101455.78;;;12.99;82.68
74790;BME280;63318;52.406;13.416;2022-10-30T03:27:22;101454.02;;;12.98;82.91
74790;BME280;63318;52.406;13.416;2022-10-30T03:29:50;101451.30;;;12.96;83.03
74790;BME280;63318;52.406;13.416;2022-10-30T03:32:18;101445.67;;;12.96;83.07
74790;BME280;63318;52.406;13.416;2022-10-30T03:34:47;101446.02;;;12.95;83.03
74790;BME280;63318;52.406;13.416;2022-10-30T03:37:15;101446.90;;;12.93;82.96
74790;BME280;63318;52.406;13.416;2022-10-30T03:39:43;101445.10;;;12.90;83.06
74790;BME280;63318;52.406;13.416;2022-10-30T03:42:11;101437.73;;;12.88;83.22
74790;BME280;63318;52.406;13.416;2022-10-30T03:44:39;101421.71;;;12.87;83.09
74790;BME280;63318;52.406;13.416;2022-10-30T03:47:08;101413.27;;;12.96;82.98
74790;BME280;63318;52.406;13.416;2022-10-30T03:49:36;101413.63;;;12.99;82.92
74790;BME280;63318;52.406;13.416;2022-10-30T03:52:04;101410.84;;;13.00;83.16
74790;BME280;63318;52.406;13.416;2022-10-30T03:54:32;101409.92;;;13.05;83.42
74790;BME280;63318;52.406;13.416;2022-10-30T03:57:01;101398.67;;;13.10;83.55
74790;BME280;63318;52.406;13.416;2022-10-30T03:59:29;101389.15;;;13.14;83.58
74790;BME280;63318;52.406;13.416;2022-10-30T04:01:57;101383.14;;;13.19;83.52
74790;BME280;63318;52.406;13.416;2022-10-30T04:04:26;101384.59;;;13.25;83.48
74790;BME280;63318;52.406;13.416;2022-10-30T04:06:54;101382.58;;;13.29;83.37
74790;BME280;63318;52.406;13.416;2022-10-30T04:09:22;101372.89;;;13.31;83.38
74790;BME280;63318;52.406;13.416;2022-10-30T04:11:50;101367.03;;;13.33;83.26
74790;BME280;63318;52.406;13.416;2022-10-30T04:14:19;101377.58;;;13.36;83.26
74790;BME280;63318;52.406;13.416;2022-10-30T04:16:47;101402.38;;;13.38;83.20
74790;BME280;63318;52.406;13.416;2022-10-30T04:19:15;101410.63;;;13.37;83.19
74790;BME280;63318;52.406;13.416;2022-10-30T04:21:43;101414.04;;;13.37;83.20
74790;BME280;63318;52.406;13.416;2022-10-30T04:24:11;101401.13;;;13.37;83.34
74790;BME280;63318;52.406;13.416;2022-10-30T04:26:40;101386.08;;;13.38;83.41
74790;BME280;63318;52.406;13.416;2022-10-30T04:29:08;101375.63;;;13.39;83.24
74790;BME280;63318;52.406;13.416;2022-10-30T04:31:36;101378.14;;;13.36;83.26
74790;BME280;63318;52.406;13.416;2022-10-30T04:34:04;101383.65;;;13.29;83.07
74790;BME280;63318;52.406;13.416;2022-10-30T04:36:33;101390.50;;;13.22;83.07
74790;BME280;63318;52.406;13.416;2022-10-30T04:39:01;101392.62;;;13.19;83.00
74790;BME280;63318;52.406;13.416;2022-10-30T04:41:29;101397.74;;;13.21;82.81
74790;BME280;63318;52.406;13.416;2022-10-30T04:43:58;101408.95;;;13.18;82.90
74790;BME280;63318;52.406;13.416;2022-10-30T04:46:26;101420.89;;;13.14;82.94
74790;BME280;63318;52.406;13.416;2022-10-30T04:48:54;101437.36;;;13.12;83.16
74790;BME280;63318;52.406;13.416;2022-10-30T04:51:22;101444.83;;;13.12;83.18
74790;BME280;63318;52.406;13.416;2022-10-30T04:53:50;101431.42;;;13.11;83.27
74790;BME280;63318;52.406;13.416;2022-10-30T04:56:19;101417.92;;;13.12;83.33
74790;BME280;63318;52.406;13.416;2022-10-30T04:58:47;101427.47;;;13.14;83.40
74790;BME280;63318;52.406;13.416;2022-10-30T05:01:15;101431.27;;;13.13;83.58
74790;BME280;63318;52.406;13.416;2022-10-30T05:03:44;101434.18;;;13.12;83.58
74790;BME280;63318;52.406;13.416;2022-10-30T05:06:18;101424.85;;;13.12;83.59
74790;BME280;63318;52.406;13.416;2022-10-30T05:08:48;101438.67;;;13.10;83.34
74790;BME280;63318;52.406;13.416;2022-10-30T05:11:17;101435.90;;;13.05;83.33
74790;BME280;63318;52.406;13.416;2022-10-30T05:13:46;101438.06;;;13.01;83.45
74790;BME280;63318;52.406;13.416;2022-10-30T05:16:14;101436.39;;;13.00;83.43
74790;BME280;63318;52.406;13.416;2022-10-30T05:18:42;101440.79;;;13.07;83.09
74790;BME280;63318;52.406;13.416;2022-10-30T05:21:10;101443.24;;;13.08;83.04
74790;BME280;63318;52.406;13.416;2022-10-30T05:23:39;101432.36;;;13.07;83.16
74790;BME280;63318;52.406;13.416;2022-10-30T05:26:07;101420.65;;;13.08;83.34
74790;BME280;63318;52.406;13.416;2022-10-30T05:28:35;101426.69;;;13.11;83.36
74790;BME280;63318;52.406;13.416;2022-10-30T05:31:03;101423.11;;;13.13;83.48
74790;BME280;63318;52.406;13.416;2022-10-30T05:33:32;101415.53;;;13.14;83.52
74790;BME280;63318;52.406;13.416;2022-10-30T05:36:00;101418.11;;;13.16;83.49
74790;BME280;63318;52.406;13.416;2022-10-30T05:38:28;101408.01;;;13.13;83.75
74790;BME280;63318;52.406;13.416;2022-10-30T05:40:56;101391.60;;;13.13;83.82
74790;BME280;63318;52.406;13.416;2022-10-30T05:43:25;101384.59;;;13.16;83.84
74790;BME280;63318;52.406;13.416;2022-10-30T05:45:53;101377.09;;;13.17;83.87
74790;BME280;63318;52.406;13.416;2022-10-30T05:48:22;101364.20;;;13.17;83.85
74790;BME280;63318;52.406;13.416;2022-10-30T05:50:50;101313.66;;;13.16;83.63
74790;BME280;63318;52.406;13.416;2022-10-30T05:53:18;101389.05;;;13.16;83.62
74790;BME280;63318;52.406;13.416;2022-10-30T05:55:47;101455.07;;;13.21;83.36
74790;BME280;63318;52.406;13.416;2022-10-30T05:58:15;101439.06;;;13.21;83.61
74790;BME280;63318;52.406;13.416;2022-10-30T06:00:44;101430.87;;;13.24;83.69
74790;BME280;63318;52.406;13.416;2022-10-30T06:03:12;101412.79;;;13.29;83.88
74790;BME280;63318;52.406;13.416;2022-10-30T06:05:42;101377.08;;;13.33;83.86
74790;BME280;63318;52.406;13.416;2022-10-30T06:08:11;101347.16;;;13.39;83.82
74790;BME280;63318;52.406;13.416;2022-10-30T06:10:39;101352.47;;;13.42;84.00
74790;BME280;63318;52.406;13.416;2022-10-30T06:13:08;101382.34;;;13.47;84.03
74790;BME280;63318;52.406;13.416;2022-10-30T06:15:37;101416.51;;;13.51;84.04
74790;BME280;63318;52.406;13.416;2022-10-30T06:18:05;101416.46;;;13.53;84.00
74790;BME280;63318;52.406;13.416;2022-10-30T06:20:33;101391.78;;;13.55;83.93
74790;BME280;63318;52.406;13.416;2022-10-30T06:23:04;101376.30;;;13.50;84.12
74790;BME280;63318;52.406;13.416;2022-10-30T06:25:35;101370.45;;;13.52;84.21
74790;BME280;63318;52.406;13.416;2022-10-30T06:28:04;101371.45;;;13.55;84.24
74790;BME280;63318;52.406;13.416;2022-10-30T06:30:32;101376.03;;;13.59;84.05
74790;BME280;63318;52.406;13.416;2022-10-30T06:33:01;101381.90;;;13.61;83.98
74790;BME280;63318;52.406;13.416;2022-10-30T06:35:30;101381.84;;;13.61;83.85
74790;BME280;63318;52.406;13.416;2022-10-30T06:38:04;101384.08;;;13.63;83.81
74790;BME280;63318;52.406;13.416;2022-10-30T06:40:32;101385.14;;;13.72;83.51
74790;BME280;63318;52.406;13.416;2022-10-30T06:43:00;101387.94;;;13.72;83.35
74790;BME280;63318;52.406;13.416;2022-10-30T06:45:29;101386.92;;;13.70;83.33
74790;BME280;63318;52.406;13.416;2022-10-30T06:47:57;101383.73;;;13.71;83.55
74790;BME280;63318;52.406;13.416;2022-10-30T06:50:26;101379.22;;;13.73;83.72
74790;BME280;63318;52.406;13.416;2022-10-30T06:52:54;101371.96;;;13.78;83.83
74790;BME280;63318;52.406;13.416;2022-10-30T06:55:23;101374.86;;;13.85;83.76
74790;BME280;63318;52.406;13.416;2022-10-30T06:57:55;101380.55;;;13.91;83.76
74790;BME280;63318;52.406;13.416;2022-10-30T07:00:23;101386.13;;;13.97;83.85
74790;BME280;63318;52.406;13.416;2022-10-30T07:02:59;101385.08;;;13.98;83.80
74790;BME280;63318;52.406;13.416;2022-10-30T07:05:28;101385.62;;;14.02;83.95
74790;BME280;63318;52.406;13.416;2022-10-30T07:07:57;101387.40;;;14.06;83.89
74790;BME280;63318;52.406;13.416;2022-10-30T07:10:26;101388.97;;;14.07;83.79
74790;BME280;63318;52.406;13.416;2022-10-30T07:12:57;101394.05;;;14.07;83.63
74790;BME280;63318;52.406;13.416;2022-10-30T07:15:26;101391.48;;;14.07;83.66
74790;BME280;63318;52.406;13.416;2022-10-30T07:17:56;101402.15;;;14.09;83.56
74790;BME280;63318;52.406;13.416;2022-10-30T07:20:26;101407.68;;;14.17;83.29
74790;BME280;63318;52.406;13.416;2022-10-30T07:22:55;101403.38;;;14.19;83.25
74790;BME280;63318;52.406;13.416;2022-10-30T07:25:23;101406.59;;;14.24;83.46
74790;BME280;63318;52.406;13.416;2022-10-30T07:27:53;101404.88;;;14.28;83.46
74790;BME280;63318;52.406;13.416;2022-10-30T07:30:24;101401.80;;;14.34;83.43
74790;BME280;63318;52.406;13.416;2022-10-30T07:33:01;101415.38;;;14.41;83.35
74790;BME280;63318;52.406;13.416;2022-10-30T07:35:31;101421.56;;;14.47;83.64
74790;BME280;63318;52.406;13.416;2022-10-30T07:38:03;101426.30;;;14.55;83.44
74790;BME280;63318;52.406;13.416;2022-10-30T07:40:32;101424.79;;;14.58;83.34
74790;BME280;63318;52.406;13.416;2022-10-30T07:43:01;101429.74;;;14.60;83.41
74790;BME280;63318;52.406;13.416;2022-10-30T07:45:30;101429.28;;;14.64;83.37
74790;BME280;63318;52.406;13.416;2022-10-30T07:47:59;101432.41;;;14.69;83.28
74790;BME280;63318;52.406;13.416;2022-10-30T07:50:27;101424.62;;;14.73;83.15
74790;BME280;63318;52.406;13.416;2022-10-30T07:52:55;101429.77;;;14.76;83.18
74790;BME280;63318;52.406;13.416;2022-10-30T07:55:24;101415.93;;;14.78;83.15
74790;BME280;63318;52.406;13.416;2022-10-30T07:57:52;101415.41;;;14.82;83.23
74790;BME280;63318;52.406;13.416;2022-10-30T08:00:21;101415.98;;;14.91;83.26
74790;BME280;63318;52.406;13.416;2022-10-30T08:02:51;101416.59;;;15.04;83.03
74790;BME280;63318;52.406;13.416;2022-10-30T08:05:23;101413.72;;;15.08;82.88
74790;BME280;63318;52.406;13.416;2022-10-30T08:07:51;101404.98;;;15.10;82.93
74790;BME280;63318;52.406;13.416;2022-10-30T08:10:20;101424.66;;;15.13;82.78
74790;BME280;63318;52.406;13.416;2022-10-30T08:12:48;101429.96;;;15.17;82.89
74790;BME280;63318;52.406;13.416;2022-10-30T08:15:16;101432.67;;;15.23;83.08
74790;BME280;63318;52.406;13.416;2022-10-30T08:17:46;101413.48;;;15.30;82.99
74790;BME280;63318;52.406;13.416;2022-10-30T08:20:17;101432.61;;;15.35;82.93
74790;BME280;63318;52.406;13.416;2022-10-30T08:22:47;101429.78;;;15.38;82.81
74790;BME280;63318;52.406;13.416;2022-10-30T08:25:18;101423.30;;;15.48;82.97
74790;BME280;63318;52.406;13.416;2022-10-30T08:27:54;101427.92;;;15.61;82.83
74790;BME280;63318;52.406;13.416;2022-10-30T08:30:25;101427.84;;;15.72;82.49
74790;BME280;63318;52.406;13.416;2022-10-30T08:32:57;101431.18;;;15.82;82.15
74790;BME280;63318;52.406;13.416;2022-10-30T08:35:24;101433.03;;;15.90;82.00
74790;BME280;63318;52.406;13.416;2022-10-30T08:37:55;101432.37;;;15.94;81.78
74790;BME280;63318;52.406;13.416;2022-10-30T08:40:23;101438.13;;;15.96;81.22
74790;BME280;63318;52.406;13.416;2022-10-30T08:42:53;101435.16;;;16.01;81.22
74790;BME280;63318;52.406;13.416;2022-10-30T08:45:23;101431.95;;;16.09;80.91
74790;BME280;63318;52.406;13.416;2022-10-30T08:47:58;101435.10;;;16.27;80.66
74790;BME280;63318;52.406;13.416;2022-10-30T08:50:27;101432.96;;;16.39;80.37
74790;BME280;63318;52.406;13.416;2022-10-30T08:52:55;101428.47;;;16.45;80.13
74790;BME280;63318;52.406;13.416;2022-10-30T08:55:27;101428.20;;;16.48;80.03
74790;BME280;63318;52.406;13.416;2022-10-30T08:57:55;101432.58;;;16.51;79.94
74790;BME280;63318;52.406;13.416;2022-10-30T09:00:24;101437.95;;;16.53;80.08
74790;BME280;63318;52.406;13.416;2022-10-30T09:02:53;101431.36;;;16.61;80.00
74790;BME280;63318;52.406;13.416;2022-10-30T09:05:21;101437.64;;;16.75;79.75
74790;BME280;63318;52.406;13.416;2022-10-30T09:07:53;101432.74;;;16.86;79.65
74790;BME280;63318;52.406;13.416;2022-10-30T09:10:22;101433.25;;;16.99;79.21
74790;BME280;63318;52.406;13.416;2022-10-30T09:12:54;101436.35;;;17.10;78.83
74790;BME280;63318;52.406;13.416;2022-10-30T09:15:21;101438.25;;;17.24;78.44
74790;BME280;63318;52.406;13.416;2022-10-30T09:17:55;101433.14;;;17.37;78.25
74790;BME280;63318;52.406;13.416;2022-10-30T09:20:23;101435.51;;;17.49;77.85
74790;BME280;63318;52.406;13.416;2022-10-30T09:22:52;101429.59;;;17.58;77.27
74790;BME280;63318;52.406;13.416;2022-10-30T09:25:20;101426.89;;;17.69;76.88
74790;BME280;63318;52.406;13.416;2022-10-30T09:27:49;101422.27;;;17.80;76.92
74790;BME280;63318;52.406;13.416;2022-10-30T09:30:18;101415.95;;;17.89;76.62
74790;BME280;63318;52.406;13.416;2022-10-30T09:32:52;101406.90;;;18.01;75.94
74790;BME280;63318;52.406;13.416;2022-10-30T09:35:20;101409.65;;;18.21;75.67
74790;BME280;63318;52.406;13.416;2022-10-30T09:37:48;101404.79;;;18.31;75.37
74790;BME280;63318;52.406;13.416;2022-10-30T09:40:24;101401.96;;;18.41;75.18
74790;BME280;63318;52.406;13.416;2022-10-30T09:42:57;101405.00;;;18.51;74.62
74790;BME280;63318;52.406;13.416;2022-10-30T09:45:57;101406.22;;;18.58;74.26
74790;BME280;63318;52.406;13.416;2022-10-30T09:48:48;101410.79;;;18.65;73.84
74790;BME280;63318;52.406;13.416;2022-10-30T09:51:34;101402.77;;;18.72;73.55
74790;BME280;63318;52.406;13.416;2022-10-30T09:54:12;101401.45;;;18.79;73.28
74790;BME280;63318;52.406;13.416;2022-10-30T09:56:45;101405.45;;;18.87;72.87
74790;BME280;63318;52.406;13.416;2022-10-30T09:59:25;101409.34;;;18.93;72.85
74790;BME280;63318;52.406;13.416;2022-10-30T10:02:00;101407.08;;;18.98;72.51
74790;BME280;63318;52.406;13.416;2022-10-30T10:04:37;101414.34;;;19.04;72.20
74790;BME280;63318;52.406;13.416;2022-10-30T10:07:12;101409.40;;;19.10;71.99
74790;BME280;63318;52.406;13.416;2022-10-30T10:09:44;101415.39;;;19.17;72.00
74790;BME280;63318;52.406;13.416;2022-10-30T10:12:20;101418.10;;;19.24;71.81
74790;BME280;63318;52.406;13.416;2022-10-30T10:14:51;101418.86;;;19.30;71.47
74790;BME280;63318;52.406;13.416;2022-10-30T10:17:27;101420.19;;;19.35;71.14
74790;BME280;63318;52.406;13.416;2022-10-30T10:19:59;101418.35;;;19.39;70.62
74790;BME280;63318;52.406;13.416;2022-10-30T10:22:31;101412.86;;;19.44;70.01
74790;BME280;63318;52.406;13.416;2022-10-30T10:25:07;101410.23;;;19.47;70.31
74790;BME280;63318;52.406;13.416;2022-10-30T10:27:48;101410.66;;;19.50;69.97
74790;BME280;63318;52.406;13.416;2022-10-30T10:30:26;101415.57;;;19.53;69.72
74790;BME280;63318;52.406;13.416;2022-10-30T10:33:23;101414.59;;;19.56;69.13
74790;BME280;63318;52.406;13.416;2022-10-30T10:36:03;101416.86;;;19.60;69.43
74790;BME280;63318;52.406;13.416;2022-10-30T10:38:45;101417.27;;;19.63;69.18
74790;BME280;63318;52.406;13.416;2022-10-30T10:41:26;101418.46;;;19.66;69.29
74790;BME280;63318;52.406;13.416;2022-10-30T10:44:14;101422.61;;;19.68;68.92
74790;BME280;63318;52.406;13.416;2022-10-30T10:46:59;101419.77;;;19.70;69.05
74790;BME280;63318;52.406;13.416;2022-10-30T10:49:39;101418.29;;;19.73;68.84
74790;BME280;63318;52.406;13.416;2022-10-30T10:52:10;101415.85;;;19.75;68.89
74790;BME280;63318;52.406;13.416;2022-10-30T10:54:44;101409.67;;;19.77;68.64
74790;BME280;63318;52.406;13.416;2022-10-30T10:57:18;101411.52;;;19.80;68.31
74790;BME280;63318;52.406;13.416;2022-10-30T10:59:53;101403.62;;;19.84;68.26
74790;BME280;63318;52.406;13.416;2022-10-30T11:02:32;101397.98;;;19.87;68.05
74790;BME280;63318;52.406;13.416;2022-10-30T11:05:07;101394.98;;;19.91;67.94
74790;BME280;63318;52.406;13.416;2022-10-30T11:07:46;101389.91;;;19.96;67.80
74790;BME280;63318;52.406;13.416;2022-10-30T11:10:17;101388.24;;;20.01;67.63
74790;BME280;63318;52.406;13.416;2022-10-30T11:12:46;101385.63;;;20.06;67.65
74790;BME280;63318;52.406;13.416;2022-10-30T11:15:28;101387.16;;;20.12;66.98
74790;BME280;63318;52.406;13.416;2022-10-30T11:18:03;101384.77;;;20.19;66.51
74790;BME280;63318;52.406;13.416;2022-10-30T11:20:40;101388.34;;;20.25;66.61
74790;BME280;63318;52.406;13.416;2022-10-30T11:23:39;101388.23;;;20.30;66.83
74790;BME280;63318;52.406;13.416;2022-10-30T11:29:14;101390.27;;;20.44;65.75
74790;BME280;63318;52.406;13.416;2022-10-30T11:31:57;101390.13;;;20.51;65.84
74790;BME280;63318;52.406;13.416;2022-10-30T11:37:30;101391.19;;;20.65;65.70
74790;BME280;63318;52.406;13.416;2022-10-30T11:40:06;101399.41;;;20.74;65.57
74790;BME280;63318;52.406;13.416;2022-10-30T11:42:35;101405.14;;;20.81;65.08
74790;BME280;63318;52.406;13.416;2022-10-30T11:45:11;101407.52;;;20.87;64.84
74790;BME280;63318;52.406;13.416;2022-10-30T11:47:41;101404.61;;;20.91;64.13
74790;BME280;63318;52.406;13.416;2022-10-30T11:50:18;101398.11;;;20.95;63.98
74790;BME280;63318;52.406;13.416;2022-10-30T11:52:48;101393.30;;;20.99;63.21
74790;BME280;63318;52.406;13.416;2022-10-30T11:55:23;101393.42;;;21.03;63.07
74790;BME280;63318;52.406;13.416;2022-10-30T11:57:56;101392.42;;;21.07;62.67
74790;BME280;63318;52.406;13.416;2022-10-30T12:00:26;101390.64;;;21.10;62.63
74790;BME280;63318;52.406;13.416;2022-10-30T12:02:57;101388.02;;;21.12;62.58
74790;BME280;63318;52.406;13.416;2022-10-30T12:05:36;101389.55;;;21.14;62.25
74790;BME280;63318;52.406;13.416;2022-10-30T12:08:20;101384.20;;;21.15;61.58
74790;BME280;63318;52.406;13.416;2022-10-30T12:10:57;101383.63;;;21.17;61.81
74790;BME280;63318;52.406;13.416;2022-10-30T12:13:36;101384.20;;;21.19;61.99
74790;BME280;63318;52.406;13.416;2022-10-30T12:16:13;101384.95;;;21.20;61.71
74790;BME280;63318;52.406;13.416;2022-10-30T12:18:44;101384.25;;;21.23;61.24
74790;BME280;63318;52.406;13.416;2022-10-30T12:21:20;101386.92;;;21.23;61.35
74790;BME280;63318;52.406;13.416;2022-10-30T12:23:53;101386.07;;;21.24;61.12
74790;BME280;63318;52.406;13.416;2022-10-30T12:26:23;101388.88;;;21.25;60.58
74790;BME280;63318;52.406;13.416;2022-10-30T12:28:56;101387.63;;;21.26;60.57
74790;BME280;63318;52.406;13.416;2022-10-30T12:31:29;101386.20;;;21.28;60.82
74790;BME280;63318;52.406;13.416;2022-10-30T12:34:07;101388.28;;;21.29;60.73
74790;BME280;63318;52.406;13.416;2022-10-30T12:36:44;101385.55;;;21.29;60.72
74790;BME280;63318;52.406;13.416;2022-10-30T12:39:19;101384.22;;;21.31;60.68
74790;BME280;63318;52.406;13.416;2022-10-30T12:41:58;101385.42;;;21.30;60.78
74790;BME280;63318;52.406;13.416;2022-10-30T12:44:31;101386.95;;;21.30;60.41
74790;BME280;63318;52.406;13.416;2022-10-30T12:47:05;101384.98;;;21.31;60.26
74790;BME280;63318;52.406;13.416;2022-10-30T12:49:40;101380.77;;;21.33;60.19
74790;BME280;63318;52.406;13.416;2022-10-30T12:52:13;101380.67;;;21.34;60.15
74790;BME280;63318;52.406;13.416;2022-10-30T12:54:49;101379.11;;;21.35;60.35
74790;BME280;63318;52.406;13.416;2022-10-30T12:57:21;101375.14;;;21.35;60.10
74790;BME280;63318;52.406;13.416;2022-10-30T13:00:00;101375.42;;;21.35;59.74
74790;BME280;63318;52.406;13.416;2022-10-30T13:02:47;101372.19;;;21.35;60.35
74790;BME280;63318;52.406;13.416;2022-10-30T13:05:25;101364.64;;;21.35;59.91
74790;BME280;63318;52.406;13.416;2022-10-30T13:07:56;101367.13;;;21.34;59.90